Time;durP1;ratioP1;P1;durP2;ratioP2;P2;SDS_P1;SDS_P2;PMS_P1;PMS_P2;Temp;Humidity;BMP_temperature;BMP_pressure;BME280_temperature;BME280_humidity;BME280_pressure;Samples;Min_cycle;Max_cycle;Signal;HPM_P1;HPM_P2
2021/05/26 00:01:33;;;;;;;;;;;9.70;99.90;;;;;;10358921;28;20399;-50
2021/05/26 00:06:34;;;;;;;;;;;9.60;99.90;;;;;;10357447;28;20329;-51
2021/05/26 00:11:35;;;;;;;;;;;9.60;99.90;;;;;;10355141;28;20288;-50
2021/05/26 00:16:37;;;;;;;;;;;9.60;99.90;;;;;;10352449;28;20024;-50
2021/05/26 00:21:38;;;;;;;;;;;9.60;99.90;;;;;;10352938;28;20270;-50
2021/05/26 00:26:38;;;;;;;;;;;9.70;99.90;;;;;;10353695;28;20236;-50
2021/05/26 00:31:39;;;;;;;;;;;9.80;99.90;;;;;;10357643;28;19921;-50
2021/05/26 00:36:40;;;;;;;;;;;9.90;99.90;;;;;;10353520;28;19944;-50
2021/05/26 00:41:41;;;;;;;;;;;9.90;99.90;;;;;;10350563;28;19930;-50
2021/05/26 00:46:42;;;;;;;;;;;10.00;99.90;;;;;;10355919;28;20357;-50
2021/05/26 00:51:43;;;;;;;;;;;9.80;99.90;;;;;;10353469;28;19925;-50
2021/05/26 00:56:44;;;;;;;;;;;9.80;99.90;;;;;;10354394;28;19956;-50
2021/05/26 01:01:44;;;;;;;;;;;9.70;99.90;;;;;;10353212;28;20166;-50
2021/05/26 01:06:45;;;;;;;;;;;9.80;99.90;;;;;;10357742;28;20320;-50
2021/05/26 01:11:46;;;;;;;;;;;9.80;99.90;;;;;;10348963;28;19971;-50
2021/05/26 01:16:46;;;;;;;;;;;9.90;99.90;;;;;;10354733;28;19922;-50
2021/05/26 01:21:48;;;;;;;;;;;9.80;99.90;;;;;;10351700;28;20339;-50
2021/05/26 01:26:49;;;;;;;;;;;9.80;99.90;;;;;;10352333;28;20000;-50
2021/05/26 01:31:49;;;;;;;;;;;9.80;99.90;;;;;;10350783;28;19936;-50
2021/05/26 01:36:50;;;;;;;;;;;9.80;99.90;;;;;;10349272;28;19921;-50
2021/05/26 01:41:51;;;;;;;;;;;9.90;99.90;;;;;;10352218;28;19932;-50
2021/05/26 01:46:52;;;;;;;;;;;9.80;99.90;;;;;;10349341;28;20388;-50
2021/05/26 01:51:52;;;;;;;;;;;9.80;99.90;;;;;;10348991;28;20000;-50
2021/05/26 01:56:53;;;;;;;;;;;9.80;99.90;;;;;;10349029;28;19918;-50
2021/05/26 02:01:54;;;;;;;;;;;9.90;99.90;;;;;;10355578;28;20301;-50
2021/05/26 02:07:00;;;;;;;;;;;9.80;99.90;;;;;;10353994;28;20690;-50
2021/05/26 02:12:23;;;;;;;;;;;9.80;99.90;;;;;;10351285;28;19922;-50
2021/05/26 02:17:23;;;;;;;;;;;9.80;99.90;;;;;;10354297;28;19922;-50
2021/05/26 02:22:24;;;;;;;;;;;9.80;99.90;;;;;;10347904;28;19976;-50
2021/05/26 02:27:24;;;;;;;;;;;9.80;99.90;;;;;;10351763;28;20164;-50
2021/05/26 02:32:26;;;;;;;;;;;9.80;99.90;;;;;;10345710;28;20242;-50
2021/05/26 02:37:26;;;;;;;;;;;9.80;99.90;;;;;;10349801;28;19943;-50
2021/05/26 02:42:27;;;;;;;;;;;9.80;99.90;;;;;;10349696;28;19931;-50
2021/05/26 02:47:27;;;;;;;;;;;9.80;99.90;;;;;;10348888;28;19932;-50
2021/05/26 02:52:28;;;;;;;;;;;9.80;99.90;;;;;;10347635;28;20012;-50
2021/05/26 02:57:29;;;;;;;;;;;9.80;99.90;;;;;;10350305;28;19921;-50
2021/05/26 03:02:29;;;;;;;;;;;9.80;99.90;;;;;;10347711;28;19925;-50
2021/05/26 03:07:30;;;;;;;;;;;9.60;99.90;;;;;;10349206;28;20328;-50
2021/05/26 03:12:30;;;;;;;;;;;9.70;99.90;;;;;;10348715;28;20219;-50
2021/05/26 03:17:31;;;;;;;;;;;9.80;99.90;;;;;;10346397;28;20447;-50
2021/05/26 03:22:32;;;;;;;;;;;9.80;99.90;;;;;;10341301;28;19930;-50
2021/05/26 03:27:37;;;;;;;;;;;9.80;99.90;;;;;;10350650;28;19921;-50
2021/05/26 03:32:38;;;;;;;;;;;9.80;99.90;;;;;;10356725;28;19933;-50
2021/05/26 03:37:39;;;;;;;;;;;9.80;99.90;;;;;;10355131;28;19926;-50
2021/05/26 03:42:40;;;;;;;;;;;9.80;99.90;;;;;;10352733;28;19925;-50
2021/05/26 03:47:41;;;;;;;;;;;9.80;99.90;;;;;;10351412;28;20376;-50
2021/05/26 03:52:46;;;;;;;;;;;9.90;99.90;;;;;;10354648;28;19928;-50
2021/05/26 03:57:47;;;;;;;;;;;10.00;99.90;;;;;;10355708;28;19925;-50
2021/05/26 04:02:48;;;;;;;;;;;10.10;99.90;;;;;;10352565;28;19972;-50
2021/05/26 04:07:49;;;;;;;;;;;10.30;99.90;;;;;;10351275;28;19925;-50
2021/05/26 04:12:49;;;;;;;;;;;10.20;99.90;;;;;;10353304;28;20347;-50
2021/05/26 04:17:50;;;;;;;;;;;10.20;99.90;;;;;;10347382;28;19925;-50
2021/05/26 04:22:50;;;;;;;;;;;10.20;99.90;;;;;;10350632;28;19929;-50
2021/05/26 04:27:51;;;;;;;;;;;10.10;99.90;;;;;;10351754;28;19930;-50
2021/05/26 04:32:52;;;;;;;;;;;10.10;99.90;;;;;;10348193;28;19918;-50
2021/05/26 04:37:52;;;;;;;;;;;10.20;99.90;;;;;;10358910;28;19925;-50
2021/05/26 04:42:53;;;;;;;;;;;10.10;99.90;;;;;;10357293;28;19922;-50
2021/05/26 04:47:53;;;;;;;;;;;10.20;99.90;;;;;;10354466;28;19921;-50
2021/05/26 04:52:54;;;;;;;;;;;10.20;99.90;;;;;;10351504;28;19929;-50
2021/05/26 04:58:04;;;;;;;;;;;10.10;99.90;;;;;;10353687;28;19925;-50
2021/05/26 05:03:05;;;;;;;;;;;10.10;99.90;;;;;;10354160;28;20328;-50
2021/05/26 05:08:06;;;;;;;;;;;10.00;99.90;;;;;;10354951;28;20049;-50
2021/05/26 05:13:07;;;;;;;;;;;10.20;99.90;;;;;;10353007;28;19929;-49
2021/05/26 05:18:07;;;;;;;;;;;10.20;99.90;;;;;;10351301;28;21027;-50
2021/05/26 05:23:08;;;;;;;;;;;10.40;99.90;;;;;;10354001;28;19934;-52
2021/05/26 05:28:08;;;;;;;;;;;10.40;99.90;;;;;;10354637;28;19925;-51
2021/05/26 05:33:09;;;;;;;;;;;10.30;99.90;;;;;;10354825;28;19979;-52
2021/05/26 05:38:09;;;;;;;;;;;10.40;99.90;;;;;;10356978;28;20040;-52
2021/05/26 05:43:12;;;;;;;;;;;10.40;99.90;;;;;;10355372;28;19925;-52
2021/05/26 05:48:12;;;;;;;;;;;10.50;99.90;;;;;;10353922;28;19921;-50
2021/05/26 05:53:13;;;;;;;;;;;10.50;99.90;;;;;;10351033;28;20008;-52
2021/05/26 05:58:21;;;;;;;;;;;10.50;99.90;;;;;;10354444;28;19929;-51
2021/05/26 06:03:22;;;;;;;;;;;10.60;99.90;;;;;;10358152;28;20022;-52
2021/05/26 06:08:22;;;;;;;;;;;10.60;99.90;;;;;;10347690;28;19998;-52
2021/05/26 06:13:23;;;;;;;;;;;10.80;99.90;;;;;;10352499;28;19925;-52
2021/05/26 06:18:24;;;;;;;;;;;10.90;99.90;;;;;;10355532;28;20592;-52
2021/05/26 06:23:26;;;;;;;;;;;10.90;99.90;;;;;;10350238;28;21542;-52
2021/05/26 06:28:27;;;;;;;;;;;10.80;99.90;;;;;;10355782;28;19922;-52
2021/05/26 06:33:27;;;;;;;;;;;10.90;99.90;;;;;;10355387;28;19951;-52
2021/05/26 06:38:28;;;;;;;;;;;11.10;99.90;;;;;;10357493;28;19929;-52
2021/05/26 06:43:29;;;;;;;;;;;11.10;99.90;;;;;;10353793;28;19918;-52
2021/05/26 06:48:29;;;;;;;;;;;11.10;99.90;;;;;;10354889;28;19980;-52
2021/05/26 06:53:30;;;;;;;;;;;11.20;99.90;;;;;;10355775;28;20000;-52
2021/05/26 06:58:31;;;;;;;;;;;11.20;99.90;;;;;;10351596;28;20020;-52
2021/05/26 07:03:31;;;;;;;;;;;11.30;99.90;;;;;;10359057;28;20004;-52
2021/05/26 07:08:32;;;;;;;;;;;11.50;99.90;;;;;;10360166;28;20516;-52
2021/05/26 07:13:32;;;;;;;;;;;11.60;99.90;;;;;;10361100;28;20063;-50
2021/05/26 07:18:34;;;;;;;;;;;11.70;99.90;;;;;;10357359;28;19926;-50
2021/05/26 07:23:34;;;;;;;;;;;11.80;99.90;;;;;;10354088;28;20352;-50
2021/05/26 07:28:36;;;;;;;;;;;12.10;99.90;;;;;;10361836;28;19921;-50
2021/05/26 07:33:36;;;;;;;;;;;12.00;99.90;;;;;;10361739;28;20547;-49
2021/05/26 07:38:37;;;;;;;;;;;12.30;99.90;;;;;;10360221;28;19922;-50
2021/05/26 07:43:38;;;;;;;;;;;12.50;99.90;;;;;;10363172;28;20369;-50
2021/05/26 07:48:39;;;;;;;;;;;12.50;99.90;;;;;;10356799;28;19952;-50
2021/05/26 07:53:39;;;;;;;;;;;12.60;99.90;;;;;;10363999;28;20163;-50
2021/05/26 07:58:40;;;;;;;;;;;12.40;99.90;;;;;;10358695;28;19929;-50
2021/05/26 08:03:41;;;;;;;;;;;12.30;99.90;;;;;;10358940;28;19932;-51
2021/05/26 08:08:41;;;;;;;;;;;12.10;99.90;;;;;;10359241;28;20557;-51
2021/05/26 08:13:42;;;;;;;;;;;12.00;99.90;;;;;;10358949;28;19921;-51
2021/05/26 08:18:42;;;;;;;;;;;11.80;99.90;;;;;;10360060;28;19953;-50
2021/05/26 08:23:43;;;;;;;;;;;11.70;99.90;;;;;;10364114;28;19933;-50
2021/05/26 08:28:45;;;;;;;;;;;11.60;99.90;;;;;;10365332;28;19983;-50
2021/05/26 08:33:46;;;;;;;;;;;11.50;99.90;;;;;;10360333;28;19925;-50
2021/05/26 08:38:46;;;;;;;;;;;11.70;99.90;;;;;;10363561;28;19929;-50
2021/05/26 08:43:47;;;;;;;;;;;11.80;99.90;;;;;;10365095;28;19964;-50
2021/05/26 08:48:48;;;;;;;;;;;12.10;99.90;;;;;;10359361;28;19921;-50
2021/05/26 08:53:49;;;;;;;;;;;12.40;99.90;;;;;;10357863;28;19921;-50
2021/05/26 08:58:49;;;;;;;;;;;12.80;99.90;;;;;;10361033;28;20214;-50
2021/05/26 09:03:52;;;;;;;;;;;13.10;99.90;;;;;;10356625;28;19944;-50
2021/05/26 09:08:53;;;;;;;;;;;13.20;99.90;;;;;;10356384;28;20284;-50
2021/05/26 09:13:53;;;;;;;;;;;13.50;99.90;;;;;;10358455;28;19923;-50
2021/05/26 09:19:01;;;;;;;;;;;13.50;99.90;;;;;;10357089;28;20040;-51
2021/05/26 09:24:22;;;;;;;;;;;13.60;99.90;;;;;;10354096;28;20385;-50
2021/05/26 09:29:23;;;;;;;;;;;13.90;99.90;;;;;;10360633;28;20373;-50
2021/05/26 09:34:37;;;;;;;;;;;14.00;99.90;;;;;;10360405;28;19914;-51
2021/05/26 09:39:44;;;;;;;;;;;14.20;99.90;;;;;;10358086;28;20368;-50
2021/05/26 09:45:04;;;;;;;;;;;14.30;99.90;;;;;;10358630;28;20274;-50
2021/05/26 09:50:20;;;;;;;;;;;13.80;99.90;;;;;;10350961;28;19921;-51
2021/05/26 09:55:22;;;;;;;;;;;13.20;99.90;;;;;;10355020;28;20020;-51
2021/05/26 10:00:23;;;;;;;;;;;13.00;99.90;;;;;;10353049;28;19941;-51
2021/05/26 10:05:25;;;;;;;;;;;13.10;99.90;;;;;;10352965;28;19928;-50
2021/05/26 10:10:28;;;;;;;;;;;13.50;99.90;;;;;;10350521;28;19929;-50
2021/05/26 10:15:29;;;;;;;;;;;13.40;99.90;;;;;;10353839;28;19913;-50
2021/05/26 10:20:31;;;;;;;;;;;13.40;99.90;;;;;;10350875;28;19925;-50
2021/05/26 10:25:32;;;;;;;;;;;13.60;99.90;;;;;;10353253;28;19913;-51
2021/05/26 10:30:46;;;;;;;;;;;13.70;99.90;;;;;;10357177;28;20045;-50
2021/05/26 10:35:54;;;;;;;;;;;13.70;99.90;;;;;;10350362;28;20005;-50
2021/05/26 10:40:59;;;;;;;;;;;14.00;99.90;;;;;;10348576;28;19963;-51
2021/05/26 10:46:00;;;;;;;;;;;13.90;99.90;;;;;;10354755;28;19960;-50
2021/05/26 10:51:01;;;;;;;;;;;13.70;99.90;;;;;;10354470;28;19947;-50
2021/05/26 10:56:01;;;;;;;;;;;13.90;99.90;;;;;;10351611;28;20455;-50
2021/05/26 11:01:05;;;;;;;;;;;14.70;99.90;;;;;;10350294;28;21417;-50
2021/05/26 11:06:25;;;;;;;;;;;14.60;99.90;;;;;;10355556;28;19929;-51
2021/05/26 11:11:27;;;;;;;;;;;15.00;99.90;;;;;;10360961;28;20016;-51
2021/05/26 11:16:40;;;;;;;;;;;15.40;99.90;;;;;;10350250;28;19917;-51
2021/05/26 11:21:56;;;;;;;;;;;15.70;99.90;;;;;;10354968;28;19933;-51
2021/05/26 11:26:57;;;;;;;;;;;15.50;99.90;;;;;;10354427;28;21920;-50
2021/05/26 11:32:10;;;;;;;;;;;15.70;99.90;;;;;;10354071;28;19928;-51
2021/05/26 11:37:11;;;;;;;;;;;16.10;99.90;;;;;;10350302;28;19991;-51
2021/05/26 11:42:14;;;;;;;;;;;16.50;99.90;;;;;;10349545;28;19922;-51
2021/05/26 11:47:27;;;;;;;;;;;16.20;99.90;;;;;;10350749;28;20422;-50
2021/05/26 11:52:29;;;;;;;;;;;15.70;99.90;;;;;;10359131;28;20016;-50
2021/05/26 11:57:33;;;;;;;;;;;15.70;99.90;;;;;;10359501;28;19930;-51
2021/05/26 12:02:34;;;;;;;;;;;15.00;99.90;;;;;;10357091;28;20022;-51
2021/05/26 12:07:34;;;;;;;;;;;14.50;99.90;;;;;;10361522;28;19983;-51
2021/05/26 12:12:36;;;;;;;;;;;14.20;99.90;;;;;;10356804;28;19924;-50
2021/05/26 12:17:37;;;;;;;;;;;14.40;99.90;;;;;;10355762;28;19944;-50
2021/05/26 12:22:49;;;;;;;;;;;15.30;99.90;;;;;;10352159;28;22407;-51
2021/05/26 12:27:49;;;;;;;;;;;15.80;99.90;;;;;;10354856;28;20432;-50
2021/05/26 12:32:51;;;;;;;;;;;15.70;99.90;;;;;;10365575;28;19929;-51
2021/05/26 12:37:52;;;;;;;;;;;15.30;99.90;;;;;;10353600;28;19999;-50
2021/05/26 12:42:54;;;;;;;;;;;16.10;99.90;;;;;;10354698;28;20391;-51
2021/05/26 12:47:55;;;;;;;;;;;16.40;99.90;;;;;;10356302;28;20002;-51
2021/05/26 12:53:06;;;;;;;;;;;16.90;99.90;;;;;;10365396;28;20711;-51
2021/05/26 12:58:14;;;;;;;;;;;17.10;99.90;;;;;;10363538;28;19952;-51
2021/05/26 13:03:19;;;;;;;;;;;17.10;99.90;;;;;;10359322;28;19921;-51
2021/05/26 13:08:20;;;;;;;;;;;17.50;99.90;;;;;;10361700;28;20229;-50
2021/05/26 13:13:30;;;;;;;;;;;17.30;99.90;;;;;;10354484;28;19935;-50
2021/05/26 13:18:31;;;;;;;;;;;17.10;99.90;;;;;;10354129;28;19925;-50
2021/05/26 13:23:32;;;;;;;;;;;17.30;99.90;;;;;;10355106;28;19933;-51
2021/05/26 13:28:38;;;;;;;;;;;16.80;99.90;;;;;;10358010;28;19925;-51
2021/05/26 13:33:39;;;;;;;;;;;16.40;99.90;;;;;;10360860;28;19922;-51
2021/05/26 13:38:40;;;;;;;;;;;16.00;99.90;;;;;;10362151;28;20192;-50
2021/05/26 13:43:40;;;;;;;;;;;15.80;99.90;;;;;;10361625;28;19925;-50
2021/05/26 13:48:41;;;;;;;;;;;15.40;99.90;;;;;;10355181;28;19918;-50
2021/05/26 13:53:42;;;;;;;;;;;15.00;99.90;;;;;;10356054;28;19924;-50
2021/05/26 13:58:43;;;;;;;;;;;14.80;99.90;;;;;;10350488;28;19933;-50
2021/05/26 14:03:44;;;;;;;;;;;14.70;99.90;;;;;;10350825;28;19925;-50
2021/05/26 14:08:45;;;;;;;;;;;14.50;99.90;;;;;;10355170;28;19956;-50
2021/05/26 14:13:45;;;;;;;;;;;14.30;99.90;;;;;;10351953;28;19925;-50
2021/05/26 14:18:46;;;;;;;;;;;14.20;99.90;;;;;;10351796;28;19934;-50
2021/05/26 14:23:46;;;;;;;;;;;14.10;99.90;;;;;;10350129;28;19933;-50
2021/05/26 14:28:47;;;;;;;;;;;14.00;99.90;;;;;;10349335;28;19918;-50
2021/05/26 14:33:48;;;;;;;;;;;13.80;99.90;;;;;;10352633;28;19928;-50
2021/05/26 14:43:59;;;;;;;;;;;13.40;99.90;;;;;;10347847;28;19921;-50
2021/05/26 14:49:00;;;;;;;;;;;13.40;99.90;;;;;;10349228;28;19913;-50
2021/05/26 14:54:01;;;;;;;;;;;13.30;99.90;;;;;;10350971;28;19933;-50
2021/05/26 14:59:02;;;;;;;;;;;13.30;99.90;;;;;;10354249;28;20340;-50
2021/05/26 15:04:03;;;;;;;;;;;13.20;99.90;;;;;;10359772;28;19921;-50
2021/05/26 15:09:04;;;;;;;;;;;13.30;99.90;;;;;;10353072;28;20150;-50
2021/05/26 15:14:07;;;;;;;;;;;13.10;99.90;;;;;;10344824;28;19925;-52
2021/05/26 15:19:07;;;;;;;;;;;12.90;99.90;;;;;;10350125;28;19956;-50
2021/05/26 15:24:08;;;;;;;;;;;13.00;99.90;;;;;;10355947;28;19994;-50
2021/05/26 15:29:09;;;;;;;;;;;13.00;99.90;;;;;;10360052;28;19932;-50
2021/05/26 15:34:10;;;;;;;;;;;12.90;99.90;;;;;;10360797;28;19921;-50
2021/05/26 15:39:11;;;;;;;;;;;12.70;99.90;;;;;;10354897;28;19926;-50
2021/05/26 15:44:11;;;;;;;;;;;12.60;99.90;;;;;;10360570;28;19921;-50
2021/05/26 15:49:12;;;;;;;;;;;12.40;99.90;;;;;;10357623;28;19948;-50
2021/05/26 15:54:13;;;;;;;;;;;12.30;99.90;;;;;;10356055;28;20321;-50
2021/05/26 15:59:14;;;;;;;;;;;12.10;99.90;;;;;;10357461;28;19966;-50
2021/05/26 16:04:14;;;;;;;;;;;12.10;99.90;;;;;;10361543;28;19914;-50
2021/05/26 16:09:15;;;;;;;;;;;12.00;99.90;;;;;;10359270;28;20372;-50
2021/05/26 16:14:15;;;;;;;;;;;12.00;99.90;;;;;;10349727;28;19936;-49
2021/05/26 16:19:16;;;;;;;;;;;12.00;99.90;;;;;;10348512;28;19933;-49
2021/05/26 16:24:16;;;;;;;;;;;12.00;99.90;;;;;;10352189;28;20207;-50
2021/05/26 16:29:17;;;;;;;;;;;12.10;99.90;;;;;;10357834;28;19917;-50
2021/05/26 16:34:18;;;;;;;;;;;12.10;99.90;;;;;;10356929;28;20380;-50
2021/05/26 16:39:19;;;;;;;;;;;12.10;99.90;;;;;;10353074;28;20380;-50
2021/05/26 16:44:21;;;;;;;;;;;12.10;99.90;;;;;;10352740;28;19932;-50
2021/05/26 16:49:21;;;;;;;;;;;12.10;99.90;;;;;;10349446;28;20518;-50
2021/05/26 16:54:22;;;;;;;;;;;12.00;99.90;;;;;;10352316;28;19925;-50
2021/05/26 16:59:23;;;;;;;;;;;12.10;99.90;;;;;;10352929;28;20020;-50
2021/05/26 17:04:26;;;;;;;;;;;12.10;99.90;;;;;;10357007;28;20485;-52
2021/05/26 17:09:30;;;;;;;;;;;11.90;99.90;;;;;;10360789;28;20346;-52
2021/05/26 17:14:30;;;;;;;;;;;11.80;99.90;;;;;;10350320;28;19921;-52
2021/05/26 17:19:32;;;;;;;;;;;11.80;99.90;;;;;;10350493;28;19928;-50
2021/05/26 17:24:33;;;;;;;;;;;11.90;99.90;;;;;;10347463;28;19939;-50
2021/05/26 17:29:35;;;;;;;;;;;11.80;99.90;;;;;;10350177;28;20297;-50
2021/05/26 17:34:35;;;;;;;;;;;11.90;99.90;;;;;;10343368;28;19921;-51
2021/05/26 17:39:36;;;;;;;;;;;11.80;99.90;;;;;;10343132;28;20257;-51
2021/05/26 17:44:37;;;;;;;;;;;11.70;99.90;;;;;;10338934;28;19964;-51
2021/05/26 17:49:37;;;;;;;;;;;11.60;99.90;;;;;;10346388;28;19914;-51
2021/05/26 17:54:38;;;;;;;;;;;11.80;99.90;;;;;;10346070;28;19917;-51
2021/05/26 17:59:40;;;;;;;;;;;11.80;99.90;;;;;;10349120;28;19940;-51
2021/05/26 18:04:42;;;;;;;;;;;11.90;99.90;;;;;;10339899;28;19921;-51
2021/05/26 18:09:42;;;;;;;;;;;11.90;99.90;;;;;;10339683;28;20428;-51
2021/05/26 18:14:43;;;;;;;;;;;11.90;99.90;;;;;;10356485;28;19933;-51
2021/05/26 18:19:44;;;;;;;;;;;11.90;99.90;;;;;;10349989;28;20396;-51
2021/05/26 18:24:45;;;;;;;;;;;12.00;99.90;;;;;;10342548;28;19952;-51
2021/05/26 18:29:45;;;;;;;;;;;12.00;99.90;;;;;;10343536;28;19959;-51
2021/05/26 18:34:46;;;;;;;;;;;12.10;99.90;;;;;;10348616;28;19925;-51
2021/05/26 18:39:47;;;;;;;;;;;12.10;99.90;;;;;;10347322;28;20344;-51
2021/05/26 18:44:47;;;;;;;;;;;12.20;99.90;;;;;;10351156;28;20202;-52
2021/05/26 18:49:51;;;;;;;;;;;12.10;99.90;;;;;;10357602;28;19925;-51
2021/05/26 18:54:52;;;;;;;;;;;12.00;99.90;;;;;;10354412;28;19917;-51
2021/05/26 18:59:52;;;;;;;;;;;12.10;99.90;;;;;;10353646;28;21865;-52
2021/05/26 19:04:53;;;;;;;;;;;12.00;99.90;;;;;;10362626;28;19969;-51
2021/05/26 19:09:53;;;;;;;;;;;12.00;99.90;;;;;;10361750;28;19971;-51
2021/05/26 19:14:55;;;;;;;;;;;12.00;99.90;;;;;;10363195;28;20808;-51
2021/05/26 19:19:56;;;;;;;;;;;12.10;99.90;;;;;;10353841;28;19925;-52
2021/05/26 19:24:57;;;;;;;;;;;12.00;99.90;;;;;;10363626;28;20400;-51
2021/05/26 19:30:00;;;;;;;;;;;12.10;99.90;;;;;;10358208;28;20399;-51
2021/05/26 19:35:00;;;;;;;;;;;12.00;99.90;;;;;;10359029;28;19921;-51
2021/05/26 19:40:01;;;;;;;;;;;11.90;99.90;;;;;;10359471;28;20027;-51
2021/05/26 19:45:02;;;;;;;;;;;11.80;99.90;;;;;;10354853;28;19925;-51
2021/05/26 19:50:06;;;;;;;;;;;11.90;99.90;;;;;;10357350;28;19917;-51
2021/05/26 19:55:07;;;;;;;;;;;11.80;99.90;;;;;;10354137;28;20238;-51
2021/05/26 20:00:08;;;;;;;;;;;11.90;99.90;;;;;;10346953;28;19929;-51
2021/05/26 20:05:09;;;;;;;;;;;11.90;99.90;;;;;;10350595;28;19936;-51
2021/05/26 20:10:12;;;;;;;;;;;11.80;99.90;;;;;;10355426;28;20376;-51
2021/05/26 20:15:13;;;;;;;;;;;11.80;99.90;;;;;;10355240;28;19921;-51
2021/05/26 20:20:15;;;;;;;;;;;11.90;99.90;;;;;;10362312;28;19932;-51
2021/05/26 20:25:16;;;;;;;;;;;11.90;99.90;;;;;;10360647;28;19929;-51
2021/05/26 20:30:17;;;;;;;;;;;11.80;99.90;;;;;;10364602;28;20296;-51
2021/05/26 20:35:17;;;;;;;;;;;11.90;99.90;;;;;;10359402;28;20418;-51
2021/05/26 20:40:18;;;;;;;;;;;11.80;99.90;;;;;;10359227;28;20403;-51
2021/05/26 20:45:19;;;;;;;;;;;11.80;99.90;;;;;;10363421;28;19928;-51
2021/05/26 20:50:19;;;;;;;;;;;11.80;99.90;;;;;;10365208;28;19921;-51
2021/05/26 20:55:21;;;;;;;;;;;11.70;99.90;;;;;;10359347;28;20416;-50
2021/05/26 21:00:25;;;;;;;;;;;11.80;99.90;;;;;;10366817;28;19925;-51
2021/05/26 21:05:25;;;;;;;;;;;11.60;99.90;;;;;;10362809;28;19920;-51
2021/05/26 21:10:26;;;;;;;;;;;11.60;99.90;;;;;;10365916;28;19917;-51
2021/05/26 21:15:27;;;;;;;;;;;11.60;99.90;;;;;;10373697;28;19917;-51
2021/05/26 21:20:28;;;;;;;;;;;11.60;99.90;;;;;;10360924;28;19921;-51
2021/05/26 21:25:29;;;;;;;;;;;11.60;99.90;;;;;;10355613;28;19925;-51
2021/05/26 21:30:29;;;;;;;;;;;11.70;99.90;;;;;;10355110;28;19922;-51
2021/05/26 21:35:30;;;;;;;;;;;11.70;99.90;;;;;;10361167;28;20007;-50
2021/05/26 21:40:32;;;;;;;;;;;11.70;99.90;;;;;;10368276;28;20132;-50
2021/05/26 21:45:32;;;;;;;;;;;11.70;99.90;;;;;;10362263;28;19921;-51
2021/05/26 21:50:33;;;;;;;;;;;11.70;99.90;;;;;;10365493;28;19925;-51
2021/05/26 21:55:34;;;;;;;;;;;11.80;99.90;;;;;;10351933;28;20112;-51
2021/05/26 22:00:35;;;;;;;;;;;11.70;99.90;;;;;;10357767;28;20084;-51
2021/05/26 22:05:35;;;;;;;;;;;11.60;99.90;;;;;;10362177;28;20094;-51
2021/05/26 22:10:37;;;;;;;;;;;11.60;99.90;;;;;;10363312;28;20593;-51
2021/05/26 22:15:38;;;;;;;;;;;11.60;99.90;;;;;;10354940;28;20273;-51
2021/05/26 22:20:39;;;;;;;;;;;11.60;99.90;;;;;;10365116;28;20079;-50
2021/05/26 22:25:39;;;;;;;;;;;11.60;99.90;;;;;;10359974;28;20430;-51
2021/05/26 22:30:40;;;;;;;;;;;11.50;99.90;;;;;;10358109;28;19921;-50
2021/05/26 22:35:41;;;;;;;;;;;11.40;99.90;;;;;;10355591;28;19917;-51
2021/05/26 22:40:41;;;;;;;;;;;11.40;99.90;;;;;;10358698;28;19929;-51
2021/05/26 22:45:57;;;;;;;;;;;11.30;99.90;;;;;;10359943;28;19922;-51
2021/05/26 22:50:57;;;;;;;;;;;11.30;99.90;;;;;;10357470;28;19922;-51
2021/05/26 22:55:58;;;;;;;;;;;11.30;99.90;;;;;;10356801;28;20444;-51
2021/05/26 23:00:59;;;;;;;;;;;11.20;99.90;;;;;;10358723;28;19928;-51
2021/05/26 23:06:06;;;;;;;;;;;11.20;99.90;;;;;;10357495;28;19982;-51
2021/05/26 23:11:07;;;;;;;;;;;11.20;99.90;;;;;;10356741;28;19921;-51
2021/05/26 23:16:08;;;;;;;;;;;11.20;99.90;;;;;;10355682;28;20447;-50
2021/05/26 23:21:09;;;;;;;;;;;11.20;99.90;;;;;;10359019;28;19987;-51
2021/05/26 23:26:10;;;;;;;;;;;11.10;99.90;;;;;;10355750;28;20289;-51
2021/05/26 23:31:10;;;;;;;;;;;11.10;99.90;;;;;;10360339;28;19922;-51
2021/05/26 23:36:11;;;;;;;;;;;11.10;99.90;;;;;;10360516;28;20006;-51
2021/05/26 23:41:11;;;;;;;;;;;11.10;99.90;;;;;;10357411;28;20339;-50
2021/05/26 23:46:12;;;;;;;;;;;11.00;99.90;;;;;;10365469;28;19932;-50
2021/05/26 23:51:13;;;;;;;;;;;10.90;99.90;;;;;;10370325;28;20339;-51
2021/05/26 23:56:13;;;;;;;;;;;10.80;99.90;;;;;;10371548;28;20375;-50
